Time;durP1;ratioP1;P1;durP2;ratioP2;P2;SDS_P1;SDS_P2;PMS_P1;PMS_P2;Temp;Humidity;BMP_temperature;BMP_pressure;BME280_temperature;BME280_humidity;BME280_pressure;Samples;Min_cycle;Max_cycle;Signal;HPM_P1;HPM_P2
2021/03/25 00:01:56;;;;;;;26.50;12.40;;;;;;;1.93;72.04;100655.38;126242;1099;104140;-78
2021/03/25 00:04:26;;;;;;;23.63;10.53;;;;;;;1.91;72.16;100651.76;126333;1099;104156;-78
2021/03/25 00:06:58;;;;;;;26.30;11.03;;;;;;;1.90;71.96;100651.65;126296;1099;104271;-79
2021/03/25 00:09:31;;;;;;;25.13;10.97;;;;;;;1.89;72.02;100657.64;126340;1099;104165;-78
2021/03/25 00:12:00;;;;;;;24.27;10.63;;;;;;;1.86;72.36;100647.06;126139;1099;104217;-79
2021/03/25 00:14:30;;;;;;;24.83;10.90;;;;;;;1.83;72.25;100642.55;126268;1099;104149;-79
2021/03/25 00:16:59;;;;;;;24.53;10.93;;;;;;;1.80;71.62;100637.16;126289;1099;101800;-79
2021/03/25 00:19:28;;;;;;;22.87;11.13;;;;;;;1.79;71.76;100631.09;126203;1099;104408;-79
2021/03/25 00:21:57;;;;;;;25.13;11.43;;;;;;;1.79;71.76;100638.84;126197;1099;104348;-79
2021/03/25 00:24:26;;;;;;;22.50;9.97;;;;;;;1.77;72.31;100632.64;126209;1098;108181;-78
2021/03/25 00:26:54;;;;;;;27.03;10.83;;;;;;;1.76;71.60;100633.45;126265;1099;104144;-78
2021/03/25 00:29:23;;;;;;;24.53;10.37;;;;;;;1.75;72.29;100622.98;126310;1099;104175;-79
2021/03/25 00:31:52;;;;;;;26.63;11.53;;;;;;;1.74;71.54;100627.24;126283;1098;104149;-77
2021/03/25 00:34:21;;;;;;;25.20;11.00;;;;;;;1.72;71.59;100623.66;126249;1099;104284;-78
2021/03/25 00:36:50;;;;;;;25.03;11.63;;;;;;;1.71;71.60;100620.95;126276;1099;104223;-77
2021/03/25 00:39:19;;;;;;;23.60;10.87;;;;;;;1.71;71.62;100620.95;126293;1099;104143;-77
2021/03/25 00:41:48;;;;;;;25.10;10.77;;;;;;;1.72;72.17;100613.30;126313;1099;104169;-78
2021/03/25 00:44:17;;;;;;;23.93;10.47;;;;;;;1.74;71.82;100616.89;126259;1099;104139;-78
2021/03/25 00:46:46;;;;;;;24.23;10.97;;;;;;;1.72;71.76;100610.72;126314;1099;104149;-77
2021/03/25 00:49:15;;;;;;;23.30;10.43;;;;;;;1.71;71.59;100614.08;126311;1099;104212;-78
2021/03/25 00:51:43;;;;;;;24.10;10.77;;;;;;;1.70;72.09;100612.30;126270;1099;104277;-77
2021/03/25 00:54:12;;;;;;;24.73;10.53;;;;;;;1.69;72.08;100607.91;126256;1099;104281;-78
2021/03/25 00:56:41;;;;;;;21.13;9.90;;;;;;;1.70;71.36;100611.38;126285;1099;104140;-78
2021/03/25 00:59:10;;;;;;;23.87;10.60;;;;;;;1.68;71.84;100619.03;126245;1099;104275;-79
2021/03/25 01:01:39;;;;;;;22.20;9.50;;;;;;;1.65;71.60;100608.46;126235;1099;104366;-78
2021/03/25 01:04:09;;;;;;;26.37;10.63;;;;;;;1.64;71.97;100611.86;126205;1099;104216;-79
2021/03/25 01:06:38;;;;;;;23.67;10.80;;;;;;;1.62;71.70;100613.41;126302;1099;104143;-78
2021/03/25 01:09:15;;;;;;;24.50;10.60;;;;;;;1.58;71.47;100617.47;126340;1099;104216;-78
2021/03/25 01:11:44;;;;;;;25.47;11.83;;;;;;;1.54;71.56;100612.88;126303;1098;104139;-79
2021/03/25 01:14:15;;;;;;;23.53;9.97;;;;;;;1.51;71.41;100615.24;126189;1098;104335;-79
2021/03/25 01:16:47;;;;;;;25.00;10.97;;;;;;;1.48;71.83;100608.92;126266;1099;104322;-79
2021/03/25 01:19:20;;;;;;;25.13;10.87;;;;;;;1.47;71.41;100612.31;126292;1099;104152;-78
2021/03/25 01:21:49;;;;;;;24.87;10.97;;;;;;;1.42;71.91;100614.56;126322;1099;104156;-77
2021/03/25 01:24:18;;;;;;;26.23;11.50;;;;;;;1.42;71.73;100611.98;126251;1099;104153;-78
2021/03/25 01:26:48;;;;;;;26.27;11.50;;;;;;;1.42;71.62;100606.80;126276;1099;104280;-79
2021/03/25 01:29:18;;;;;;;26.07;10.90;;;;;;;1.38;71.86;100609.94;126292;1099;104319;-78
2021/03/25 01:31:48;;;;;;;25.20;12.10;;;;;;;1.34;71.86;100613.07;126301;1099;104274;-78
2021/03/25 01:34:21;;;;;;;26.63;11.93;;;;;;;1.32;71.79;100619.83;126269;1097;105426;-78
2021/03/25 01:36:51;;;;;;;24.50;10.87;;;;;;;1.29;71.62;100615.31;126290;1099;104153;-78
2021/03/25 01:39:22;;;;;;;27.67;12.47;;;;;;;1.25;71.60;100613.30;126215;1099;104178;-78
2021/03/25 01:41:51;;;;;;;26.00;11.80;;;;;;;1.21;71.67;100619.91;126292;1099;104146;-77
2021/03/25 01:44:36;;;;;;;25.23;10.63;;;;;;;1.19;71.67;100615.44;126111;1099;104149;-78
2021/03/25 01:47:10;;;;;;;24.73;11.03;;;;;;;1.18;71.66;100622.27;126289;1099;104210;-78
2021/03/25 01:49:41;;;;;;;27.47;11.40;;;;;;;1.16;71.49;100612.62;126280;1099;104201;-78
2021/03/25 01:52:28;;;;;;;25.77;11.53;;;;;;;1.15;71.61;100628.90;126225;1099;104153;-78
2021/03/25 01:55:24;;;;;;;25.07;10.57;;;;;;;1.11;71.70;100624.27;126181;1098;104277;-77
2021/03/25 01:58:04;;;;;;;24.70;11.30;;;;;;;1.07;71.54;100623.16;126291;1099;104275;-78
2021/03/25 02:00:44;;;;;;;25.90;11.30;;;;;;;1.04;71.36;100623.84;126276;1099;104146;-78
2021/03/25 02:03:40;;;;;;;25.00;10.70;;;;;;;1.00;71.76;100624.38;126279;1099;104144;-78
2021/03/25 02:06:22;;;;;;;26.17;11.80;;;;;;;1.00;71.43;100632.13;126212;1099;104348;-78
2021/03/25 02:09:03;;;;;;;24.50;11.10;;;;;;;0.97;71.38;100629.32;126326;1098;104230;-78
2021/03/25 02:11:40;;;;;;;25.57;10.87;;;;;;;0.97;71.51;100623.26;126313;1099;104155;-78
2021/03/25 02:14:17;;;;;;;27.53;11.53;;;;;;;0.95;71.70;100627.39;126258;1099;104271;-79
2021/03/25 02:17:01;;;;;;;24.73;10.30;;;;;;;0.94;71.26;100631.67;126273;1099;118895;-78
2021/03/25 02:20:19;;;;;;;27.00;11.37;;;;;;;0.92;71.44;100627.16;126271;1099;103986;-79
2021/03/25 02:23:10;;;;;;;23.50;10.37;;;;;;;0.92;71.41;100622.91;126292;1099;104316;-78
2021/03/25 02:25:44;;;;;;;23.87;10.53;;;;;;;0.91;71.53;100623.69;126236;1099;104695;-78
2021/03/25 02:28:44;;;;;;;23.73;10.17;;;;;;;0.92;71.18;100622.91;126305;1099;104156;-79
2021/03/25 02:31:18;;;;;;;24.03;10.17;;;;;;;0.91;70.95;100626.27;126292;1099;104140;-78
2021/03/25 02:33:53;;;;;;;23.47;10.13;;;;;;;0.91;71.52;100628.85;126219;1099;104137;-78
2021/03/25 02:36:28;;;;;;;25.77;10.83;;;;;;;0.90;71.30;100619.29;126253;1099;104140;-78
2021/03/25 02:39:02;;;;;;;24.70;11.57;;;;;;;0.89;70.97;100618.40;126243;1099;104140;-78
2021/03/25 02:41:36;;;;;;;27.00;11.37;;;;;;;0.88;71.41;100616.59;126287;1099;104146;-78
2021/03/25 02:44:10;;;;;;;26.75;10.32;;;;;;;0.88;70.97;100614.00;126315;1099;104137;-79
2021/03/25 02:46:47;;;;;;;26.23;10.40;;;;;;;0.90;70.77;100619.29;126229;1099;104734;-78
2021/03/25 02:49:28;;;;;;;24.23;10.50;;;;;;;0.87;71.20;100613.89;126282;1099;104169;-78
2021/03/25 02:52:05;;;;;;;23.00;9.60;;;;;;;0.88;71.12;100611.42;126284;1099;104213;-79
2021/03/25 02:54:36;;;;;;;25.10;10.70;;;;;;;0.89;71.21;100612.34;126280;1099;104329;-78
2021/03/25 02:57:13;;;;;;;28.27;10.23;;;;;;;0.88;71.23;100610.53;126277;1098;104281;-78
2021/03/25 02:59:47;;;;;;;23.93;10.70;;;;;;;0.88;71.12;100605.36;126268;1099;104147;-78
2021/03/25 03:02:25;;;;;;;22.20;9.43;;;;;;;0.86;70.96;100606.94;126308;1099;104146;-78
2021/03/25 03:05:01;;;;;;;25.47;11.03;;;;;;;0.85;70.98;100605.12;126272;1099;104165;-78
2021/03/25 03:07:38;;;;;;;23.90;9.83;;;;;;;0.86;71.15;100613.00;126225;1099;104152;-79
2021/03/25 03:10:25;;;;;;;21.80;9.50;;;;;;;0.86;71.54;100617.28;126295;1099;104281;-79
2021/03/25 03:12:58;;;;;;;25.10;10.13;;;;;;;0.84;71.06;100608.48;126291;1099;104204;-78
2021/03/25 03:15:29;;;;;;;22.03;9.60;;;;;;;0.86;71.10;100615.58;126252;1099;104137;-80
2021/03/25 03:18:06;;;;;;;24.40;9.97;;;;;;;0.86;71.10;100615.58;126262;1099;111927;-78
2021/03/25 03:20:49;;;;;;;;;;;;;;;0.84;71.04;100616.23;126311;1099;104322;-78
2021/03/25 03:23:36;;;;;;;23.67;9.20;;;;;;;0.83;70.96;100622.20;126243;1099;104156;-78
2021/03/25 03:26:12;;;;;;;25.60;9.80;;;;;;;0.81;71.00;100621.17;126136;1099;104428;-78
2021/03/25 03:28:45;;;;;;;22.20;9.07;;;;;;;0.80;71.06;100620.28;126290;1099;104335;-78
2021/03/25 03:31:35;;;;;;;22.17;9.13;;;;;;;0.80;70.93;100615.11;126291;1098;104192;-78
2021/03/25 03:34:18;;;;;;;27.73;9.78;;;;;;;0.82;70.85;100615.23;126291;1099;104182;-78
2021/03/25 03:36:51;;;;;;;22.63;9.67;;;;;;;0.81;71.04;100611.76;126229;1099;104290;-78
2021/03/25 03:39:24;;;;;;;23.80;9.10;;;;;;;0.84;71.14;100618.82;126254;1099;104149;-78
2021/03/25 03:41:57;;;;;;;23.47;9.40;;;;;;;0.83;70.77;100610.18;126300;1099;104153;-79
2021/03/25 03:44:29;;;;;;;21.83;9.80;;;;;;;0.82;70.92;100608.37;126237;1099;104287;-79
2021/03/25 03:47:02;;;;;;;20.53;8.00;;;;;;;0.81;70.85;100603.09;126230;1098;104195;-77
2021/03/25 03:49:39;;;;;;;21.57;9.03;;;;;;;0.78;70.86;100605.44;126267;1098;104137;-77
2021/03/25 03:52:14;;;;;;;23.43;9.30;;;;;;;0.77;70.49;100604.55;126299;1099;104175;-78
2021/03/25 03:54:48;;;;;;;25.50;9.77;;;;;;;0.78;71.22;100610.60;126284;1099;104187;-78
2021/03/25 03:57:25;;;;;;;22.17;9.30;;;;;;;0.77;70.74;100609.71;126251;1099;104152;-79
2021/03/25 04:00:05;;;;;;;19.93;8.80;;;;;;;0.76;70.67;100612.17;126319;1096;104271;-78
2021/03/25 04:02:55;;;;;;;21.83;9.03;;;;;;;0.75;70.63;100621.62;126314;1098;104140;-79
2021/03/25 04:05:42;;;;;;;21.83;8.87;;;;;;;0.74;70.30;100624.97;126199;1099;104172;-78
2021/03/25 04:08:27;;;;;;;22.60;8.83;;;;;;;0.73;70.52;100612.83;126087;1097;104169;-78
2021/03/25 04:11:15;;;;;;;22.40;9.13;;;;;;;0.73;70.19;100602.50;126282;1099;104149;-78
2021/03/25 04:13:55;;;;;;;21.03;7.97;;;;;;;0.73;70.83;100596.44;126231;1099;104204;-77
2021/03/25 04:16:40;;;;;;;20.67;8.90;;;;;;;0.72;70.53;100598.14;126115;1099;104281;-77
2021/03/25 04:19:32;;;;;;;22.27;8.93;;;;;;;0.73;70.69;100601.61;125191;1099;109368;-78
2021/03/25 04:22:22;;;;;;;18.43;8.40;;;;;;;0.74;70.96;100595.67;125214;1099;104300;-78
2021/03/25 04:25:05;;;;;;;19.13;7.70;;;;;;;0.76;70.80;100604.43;125213;1100;105490;-79
2021/03/25 04:27:48;;;;;;;22.33;8.33;;;;;;;0.75;70.58;100600.95;125226;1099;104146;-78
2021/03/25 04:30:21;;;;;;;19.73;7.90;;;;;;;0.77;70.22;100606.23;125211;1102;104297;-79
2021/03/25 04:32:51;;;;;;;19.73;7.93;;;;;;;0.77;70.04;100612.30;125188;1102;104156;-79
2021/03/25 04:35:22;;;;;;;19.70;7.77;;;;;;;0.79;70.55;100602.08;125254;1102;104989;-79
2021/03/25 04:37:53;;;;;;;21.30;8.80;;;;;;;0.81;70.24;100600.50;125204;1103;104296;-79
2021/03/25 04:40:25;;;;;;;19.70;7.93;;;;;;;0.81;70.20;100604.01;125149;1102;104325;-77
2021/03/25 04:42:55;;;;;;;19.30;8.30;;;;;;;0.83;70.57;100602.43;125249;1102;104246;-78
2021/03/25 04:45:30;;;;;;;19.77;7.60;;;;;;;0.85;70.18;100605.12;125139;1102;104176;-79
2021/03/25 04:48:03;;;;;;;16.87;7.33;;;;;;;0.87;70.46;100608.72;125557;1100;104229;-77
2021/03/25 04:50:38;;;;;;;22.97;8.53;;;;;;;0.88;70.09;100611.42;126187;1099;104300;-78
2021/03/25 04:53:21;;;;;;;20.20;7.90;;;;;;;0.90;70.00;100611.53;126299;1099;104217;-78
2021/03/25 04:55:50;;;;;;;18.83;7.10;;;;;;;0.93;70.03;100616.05;126145;1099;104437;-79
2021/03/25 04:58:27;;;;;;;18.53;8.30;;;;;;;0.95;70.22;100617.05;125987;1099;104159;-79
2021/03/25 05:01:04;;;;;;;21.30;8.23;;;;;;;0.99;69.99;100614.81;126156;1099;104290;-78
2021/03/25 05:03:33;;;;;;;22.80;8.50;;;;;;;1.03;70.13;100606.52;126074;1099;104263;-78
2021/03/25 05:06:03;;;;;;;22.67;8.93;;;;;;;1.07;70.05;100602.48;126071;1099;104160;-78
2021/03/25 05:08:34;;;;;;;22.27;8.90;;;;;;;1.10;69.92;100606.98;125696;1099;104348;-77
2021/03/25 05:11:07;;;;;;;21.43;8.43;;;;;;;1.11;69.88;100608.77;126134;1099;104171;-78
2021/03/25 05:13:39;;;;;;;19.73;8.00;;;;;;;1.16;69.97;100607.45;126143;1099;104198;-77
2021/03/25 05:16:23;;;;;;;18.20;7.97;;;;;;;1.19;69.81;100610.27;125747;1099;105072;-77
2021/03/25 05:19:06;;;;;;;19.80;7.83;;;;;;;1.22;69.86;100607.91;125974;1099;104328;-77
2021/03/25 05:21:48;;;;;;;20.07;8.20;;;;;;;1.25;69.78;100616.78;125955;1099;104300;-77
2021/03/25 05:24:27;;;;;;;19.50;8.10;;;;;;;1.27;69.57;100609.14;125912;1099;104181;-78
2021/03/25 05:27:01;;;;;;;24.00;8.60;;;;;;;1.33;69.83;100614.77;126015;1099;104207;-78
2021/03/25 05:29:31;;;;;;;23.65;7.58;;;;;;;1.36;69.67;100617.58;126053;1099;104024;-78
2021/03/25 05:32:01;;;;;;;19.17;7.73;;;;;;;1.39;69.78;100625.56;126019;1099;104181;-77
2021/03/25 05:34:33;;;;;;;23.13;8.23;;;;;;;1.42;69.36;100627.49;126119;1099;104197;-78
2021/03/25 05:37:02;;;;;;;19.17;7.63;;;;;;;1.46;69.55;100619.16;126198;1099;104213;-77
2021/03/25 05:39:34;;;;;;;20.20;8.23;;;;;;;1.48;69.56;100619.27;126164;1099;104153;-77
2021/03/25 05:42:15;;;;;;;18.83;7.67;;;;;;;1.51;69.90;100616.91;126208;1098;104201;-78
2021/03/25 05:45:16;;;;;;;22.53;8.33;;;;;;;1.53;69.25;100616.25;126230;1099;104267;-78
2021/03/25 05:48:06;;;;;;;19.97;7.73;;;;;;;1.55;69.22;100616.36;126164;1098;104178;-76
2021/03/25 05:50:44;;;;;;;19.15;7.55;;;;;;;1.56;69.19;100611.30;126040;1099;104191;-77
2021/03/25 05:53:24;;;;;;;20.20;7.27;;;;;;;1.60;69.52;100612.41;126289;1099;104264;-77
2021/03/25 05:56:10;;;;;;;24.77;8.30;;;;;;;1.67;69.45;100606.91;126243;1099;103977;-78
2021/03/25 05:58:43;;;;;;;19.83;7.70;;;;;;;1.73;69.22;100609.02;126185;1098;104278;-78
2021/03/25 06:01:23;;;;;;;19.20;8.03;;;;;;;1.81;69.57;100610.50;126081;1099;104139;-77
2021/03/25 06:04:06;;;;;;;19.47;8.00;;;;;;;1.89;69.27;100608.47;126242;1098;104166;-77
2021/03/25 06:06:51;;;;;;;21.17;7.53;;;;;;;1.96;69.45;100614.19;126182;1099;104270;-78
2021/03/25 06:09:30;;;;;;;21.03;8.53;;;;;;;2.05;69.51;100629.47;126018;1099;104172;-78
2021/03/25 06:12:09;;;;;;;17.70;7.27;;;;;;;2.13;69.30;100615.38;125980;1098;106007;-78
2021/03/25 06:14:48;;;;;;;19.30;7.80;;;;;;;2.20;68.98;100619.31;126078;1099;104326;-78
2021/03/25 06:17:32;;;;;;;20.10;7.47;;;;;;;2.29;68.94;100619.05;126084;1099;104652;-77
2021/03/25 06:20:15;;;;;;;19.37;7.40;;;;;;;2.40;68.91;100628.50;126115;1099;104182;-78
2021/03/25 06:22:54;;;;;;;20.40;7.90;;;;;;;2.50;68.04;100624.84;125984;1099;104153;-79
2021/03/25 06:25:38;;;;;;;19.67;7.83;;;;;;;2.60;68.25;100631.56;125971;1099;104178;-79
2021/03/25 06:28:21;;;;;;;18.87;7.73;;;;;;;2.69;68.24;100627.02;125928;1099;104171;-79
2021/03/25 06:31:19;;;;;;;19.00;7.67;;;;;;;2.77;67.97;100624.95;125737;1099;104162;-78
2021/03/25 06:33:55;;;;;;;20.27;7.87;;;;;;;2.90;68.35;100629.28;125894;1099;104233;-79
2021/03/25 06:36:40;;;;;;;22.80;8.30;;;;;;;3.00;68.27;100634.31;125932;1099;104373;-79
2021/03/25 06:39:20;;;;;;;21.17;8.13;;;;;;;3.13;67.82;100631.77;125889;1099;104139;-78
2021/03/25 06:41:59;;;;;;;19.00;7.83;;;;;;;3.22;68.03;100634.06;125799;1099;104192;-79
2021/03/25 06:44:36;;;;;;;22.40;8.30;;;;;;;3.29;67.96;100632.77;125941;1099;104395;-78
2021/03/25 06:47:14;;;;;;;20.87;8.00;;;;;;;3.38;67.56;100634.30;125859;1099;104190;-80
2021/03/25 06:49:49;;;;;;;21.40;8.17;;;;;;;3.46;67.19;100641.67;125967;1098;104213;-77
2021/03/25 06:52:28;;;;;;;25.57;9.20;;;;;;;3.56;67.29;100637.20;126049;1099;104230;-79
2021/03/25 06:55:01;;;;;;;19.10;8.27;;;;;;;3.71;66.98;100631.20;126010;1099;104342;-78
2021/03/25 06:57:41;;;;;;;19.48;7.72;;;;;;;3.80;67.03;100646.49;125916;1099;104146;-78
2021/03/25 07:00:18;;;;;;;18.67;7.57;;;;;;;3.83;65.88;100652.77;125937;1098;104257;-79
2021/03/25 07:02:48;;;;;;;18.43;6.93;;;;;;;3.89;66.57;100640.19;125797;1098;110717;-80
2021/03/25 07:05:26;;;;;;;14.03;5.97;;;;;;;3.92;64.50;100652.48;125830;1099;104355;-79
2021/03/25 07:08:02;;;;;;;14.10;6.00;;;;;;;3.95;64.88;100655.28;125866;1099;104322;-80
2021/03/25 07:10:32;;;;;;;17.97;6.53;;;;;;;3.95;65.42;100634.50;125981;1099;104258;-78
2021/03/25 07:13:05;;;;;;;15.27;6.10;;;;;;;3.99;64.78;100652.09;126040;1099;104297;-77
2021/03/25 07:15:40;;;;;;;17.80;7.30;;;;;;;4.03;65.06;100640.19;125976;1099;104182;-77
2021/03/25 07:18:25;;;;;;;19.83;7.53;;;;;;;4.10;64.79;100639.80;126003;1099;104168;-78
2021/03/25 07:21:20;;;;;;;19.10;6.70;;;;;;;4.12;64.07;100645.97;126117;1099;104201;-78
2021/03/25 07:23:50;;;;;;;18.87;7.77;;;;;;;4.14;63.66;100637.49;125905;1098;106991;-77
2021/03/25 07:26:30;;;;;;;17.50;7.13;;;;;;;4.22;64.53;100632.75;125777;1099;104313;-77
2021/03/25 07:29:04;;;;;;;15.37;5.80;;;;;;;4.28;63.93;100655.63;125881;1099;104342;-76
2021/03/25 07:31:40;;;;;;;13.07;4.97;;;;;;;4.30;61.04;100636.75;125528;1099;104143;-77
2021/03/25 07:34:09;;;;;;;16.27;5.90;;;;;;;4.34;63.44;100640.44;125876;1099;119048;-77
2021/03/25 07:36:51;;;;;;;14.77;6.03;;;;;;;4.39;62.88;100639.02;125157;1099;104257;-78
2021/03/25 07:39:26;;;;;;;16.45;6.00;;;;;;;4.52;62.84;100634.58;125696;1099;104153;-78
2021/03/25 07:42:06;;;;;;;17.10;6.10;;;;;;;4.61;62.85;100636.07;125903;1099;104171;-79
2021/03/25 07:44:41;;;;;;;18.13;6.03;;;;;;;4.70;62.66;100645.23;126093;1099;105836;-78
2021/03/25 07:47:30;;;;;;;15.00;5.50;;;;;;;4.78;62.60;100630.98;125888;1099;104459;-80
2021/03/25 07:50:27;;;;;;;14.17;5.37;;;;;;;4.83;62.61;100645.16;125550;1099;104348;-79
2021/03/25 07:52:58;;;;;;;13.37;5.53;;;;;;;4.88;61.53;100630.75;125703;1099;104303;-80
2021/03/25 07:55:31;;;;;;;18.47;5.70;;;;;;;4.98;59.98;100627.00;125841;1099;104615;-79
2021/03/25 07:58:06;;;;;;;13.87;5.60;;;;;;;5.02;61.31;100627.27;125818;1099;104163;-79
2021/03/25 08:00:37;;;;;;;13.60;5.43;;;;;;;5.06;60.78;100627.45;125889;1099;104300;-79
2021/03/25 08:03:25;;;;;;;14.17;5.10;;;;;;;5.08;59.12;100636.23;125758;1099;104385;-79
2021/03/25 08:05:54;;;;;;;12.13;5.10;;;;;;;5.10;60.46;100621.64;125997;1099;104153;-79
2021/03/25 08:08:29;;;;;;;12.90;4.90;;;;;;;5.10;58.37;100640.73;126094;1099;104264;-77
2021/03/25 08:11:16;;;;;;;13.63;5.50;;;;;;;5.10;59.61;100656.34;125996;1099;104197;-78
2021/03/25 08:13:53;;;;;;;17.10;6.27;;;;;;;5.07;58.11;100650.08;126015;1099;104175;-79
2021/03/25 08:16:25;;;;;;;14.47;4.97;;;;;;;5.14;58.79;100631.41;126015;1099;104169;-79
2021/03/25 08:32:23;;;;;;;15.67;6.27;;;;;;;5.51;57.54;100631.86;125065;1102;104137;-79
2021/03/25 08:35:08;;;;;;;17.13;5.87;;;;;;;5.59;57.29;100619.28;125050;1102;104169;-78
2021/03/25 08:37:56;;;;;;;12.33;5.30;;;;;;;5.69;56.74;100631.15;125031;1102;104159;-79
2021/03/25 08:40:35;;;;;;;13.80;5.10;;;;;;;5.66;55.29;100621.45;124983;1102;104488;-80
2021/03/25 08:43:07;;;;;;;19.83;6.03;;;;;;;5.76;55.68;100622.86;124831;1105;104398;-79
2021/03/25 08:45:48;;;;;;;14.30;5.33;;;;;;;5.84;57.69;100624.18;124887;1105;104211;-81
2021/03/25 08:48:25;;;;;;;13.13;5.30;;;;;;;5.99;55.70;100620.70;124822;1105;104236;-78
2021/03/25 08:51:07;;;;;;;13.73;5.17;;;;;;;6.00;53.41;100639.02;125148;1102;104207;-79
2021/03/25 08:53:46;;;;;;;15.47;5.67;;;;;;;5.96;53.81;100639.62;124991;1102;104159;-81
2021/03/25 08:56:29;;;;;;;15.10;4.80;;;;;;;5.94;54.20;100643.85;125061;1102;104265;-78
2021/03/25 08:59:02;;;;;;;13.80;5.23;;;;;;;5.96;55.14;100626.59;124881;1103;105281;-77
2021/03/25 09:01:37;;;;;;;13.93;5.53;;;;;;;6.05;55.08;100631.47;124960;1102;104333;-79
2021/03/25 09:04:10;;;;;;;14.73;5.23;;;;;;;6.17;55.16;100620.81;125102;1102;104233;-79
2021/03/25 09:06:42;;;;;;;;;;;;;;;6.32;54.10;100626.87;124824;1102;104197;-79
2021/03/25 09:09:34;;;;;;;12.20;4.73;;;;;;;6.45;54.45;100618.92;124773;1103;104281;-78
2021/03/25 09:12:12;;;;;;;11.60;4.90;;;;;;;6.57;55.09;100621.27;124775;1102;104187;-77
2021/03/25 09:14:41;;;;;;;11.80;4.80;;;;;;;6.66;55.07;100613.94;125005;1102;104169;-78
2021/03/25 09:17:16;;;;;;;14.60;5.93;;;;;;;6.75;55.37;100623.09;124860;1103;104172;-78
2021/03/25 09:19:51;;;;;;;12.70;5.23;;;;;;;6.83;54.91;100609.61;124882;1103;104360;-78
2021/03/25 09:22:38;;;;;;;13.03;5.30;;;;;;;6.92;54.10;100621.34;124825;1102;104178;-77
2021/03/25 09:25:32;;;;;;;16.70;4.70;;;;;;;6.96;53.17;100608.53;124774;1102;104179;-78
2021/03/25 09:28:04;;;;;;;8.08;4.22;;;;;;;6.97;52.92;100620.77;124928;1102;104166;-78
2021/03/25 09:30:41;;;;;;;10.63;3.80;;;;;;;6.95;51.63;100613.67;124690;1105;104271;-81
2021/03/25 09:33:36;;;;;;;12.17;4.40;;;;;;;6.96;49.34;100623.30;124754;1102;104214;-79
2021/03/25 09:36:31;;;;;;;12.67;4.43;;;;;;;7.04;51.21;100621.09;124806;1102;104171;-77
2021/03/25 09:39:26;;;;;;;11.30;4.53;;;;;;;7.11;49.88;100628.44;124904;1102;104261;-78
2021/03/25 09:41:59;;;;;;;13.45;5.30;;;;;;;7.22;52.17;100626.38;124874;1102;104257;-78
2021/03/25 09:44:36;;;;;;;15.87;5.07;;;;;;;7.40;52.53;100622.06;124794;1102;104379;-78
2021/03/25 09:47:24;;;;;;;11.17;4.83;;;;;;;7.41;51.60;100621.25;124743;1102;104301;-77
2021/03/25 09:50:13;;;;;;;10.80;4.80;;;;;;;7.41;52.04;100626.47;124799;1102;104299;-80
2021/03/25 09:53:04;;;;;;;13.83;5.10;;;;;;;7.50;51.63;100619.10;124973;1102;104178;-80
2021/03/25 09:55:37;;;;;;;11.00;5.03;;;;;;;7.60;50.37;100623.06;124961;1102;104169;-79
2021/03/25 09:58:41;;;;;;;9.97;4.47;;;;;;;7.66;51.25;100632.92;125006;1102;102637;-78
2021/03/25 10:01:41;;;;;;;9.33;4.20;;;;;;;7.68;49.37;100642.64;125056;1102;104427;-78
2021/03/25 10:04:28;;;;;;;9.83;4.55;;;;;;;7.62;49.85;100636.19;124979;1102;107951;-78
2021/03/25 10:07:26;;;;;;;13.93;5.40;;;;;;;7.65;50.36;100634.66;124968;1102;104190;-78
2021/03/25 10:09:59;;;;;;;15.10;5.03;;;;;;;7.69;49.72;100633.08;125033;1102;104214;-78
2021/03/25 10:12:56;;;;;;;11.83;4.85;;;;;;;7.59;49.13;100622.98;125030;1101;104150;-78
2021/03/25 10:15:45;;;;;;;15.90;5.47;;;;;;;7.67;50.18;100637.34;124956;1102;104229;-80
2021/03/25 10:18:48;;;;;;;14.60;5.73;;;;;;;7.84;50.15;100636.44;124948;1102;104248;-79
2021/03/25 10:21:20;;;;;;;15.57;5.63;;;;;;;7.92;49.77;100634.20;124960;1102;104200;-78
2021/03/25 10:24:00;;;;;;;15.20;5.57;;;;;;;7.98;48.42;100639.73;125054;1102;104245;-77
2021/03/25 10:26:36;;;;;;;14.40;5.57;;;;;;;7.94;48.18;100639.51;125071;1102;104147;-83
2021/03/25 10:29:13;;;;;;;12.93;5.63;;;;;;;7.91;47.56;100641.13;124998;1102;104229;-79
2021/03/25 10:31:47;;;;;;;12.75;5.30;;;;;;;7.94;48.04;100643.00;125000;1102;104291;-78
2021/03/25 10:34:22;;;;;;;11.10;4.80;;;;;;;7.88;47.87;100638.40;125032;1099;104147;-80
2021/03/25 10:36:57;;;;;;;16.20;5.37;;;;;;;7.84;47.44;100633.83;124993;1102;104160;-79
2021/03/25 10:39:33;;;;;;;15.80;5.17;;;;;;;7.85;48.25;100629.48;125100;1099;104243;-79
2021/03/25 10:42:18;;;;;;;12.70;5.20;;;;;;;7.90;47.66;100634.13;126024;1099;104217;-79
2021/03/25 10:44:47;;;;;;;13.40;5.07;;;;;;;7.99;47.27;100610.14;124999;1099;104406;-81
2021/03/25 10:47:20;;;;;;;14.03;4.63;;;;;;;8.09;47.16;100621.95;124965;1099;104169;-79
2021/03/25 10:49:52;;;;;;;12.30;4.87;;;;;;;8.09;47.83;100620.22;125105;1099;104207;-79
2021/03/25 10:52:37;;;;;;;14.33;5.20;;;;;;;8.16;48.61;100610.94;125041;1099;104194;-80
2021/03/25 10:55:16;;;;;;;10.80;4.97;;;;;;;8.30;48.46;100603.75;125846;1098;104165;-81
2021/03/25 10:57:54;;;;;;;14.23;4.57;;;;;;;8.43;46.88;100616.61;125859;1099;104255;-78
2021/03/25 11:00:36;;;;;;;13.70;4.50;;;;;;;8.52;47.91;100623.97;125818;1099;104316;-79
2021/03/25 11:09:40;;;;;;;8.87;4.17;;;;;;;8.43;46.99;100606.16;125046;1102;104278;-80
2021/03/25 11:12:24;;;;;;;13.70;4.70;;;;;;;8.54;46.74;100596.19;124725;1106;104165;-79
2021/03/25 11:15:29;;;;;;;10.77;4.33;;;;;;;8.62;44.08;100610.50;124727;1105;104204;-80
2021/03/25 11:17:57;;;;;;;;;;;;;;;8.63;44.25;100599.22;124955;1106;104300;-79
2021/03/25 11:20:29;;;;;;;10.47;4.37;;;;;;;8.61;43.65;100603.46;124896;1105;107850;-80
2021/03/25 11:23:01;;;;;;;9.60;4.10;;;;;;;8.63;43.70;100604.45;124814;1105;104719;-80
2021/03/25 11:25:33;;;;;;;9.83;4.27;;;;;;;8.68;45.17;100593.27;124653;1105;104200;-80
2021/03/25 11:28:27;;;;;;;9.40;4.20;;;;;;;8.70;43.25;100607.34;124996;1102;104353;-79
2021/03/25 11:31:18;;;;;;;11.47;4.40;;;;;;;8.71;43.98;100582.95;125058;1102;118400;-79
2021/03/25 11:33:48;;;;;;;11.97;5.20;;;;;;;8.75;45.16;100587.50;125016;1102;104224;-79
2021/03/25 11:36:38;;;;;;;10.03;4.60;;;;;;;8.78;45.24;100585.02;125089;1102;104316;-79
2021/03/25 11:39:17;;;;;;;9.10;4.00;;;;;;;8.81;43.09;100596.51;125099;1102;104319;-78
2021/03/25 11:41:57;;;;;;;10.30;3.70;;;;;;;8.71;41.82;100598.64;125056;1102;104319;-79
2021/03/25 11:44:42;;;;;;;10.77;4.10;;;;;;;8.65;43.22;100596.67;125168;1099;104158;-79
2021/03/25 11:47:31;;;;;;;10.70;4.17;;;;;;;8.62;43.00;100593.91;125778;1098;104325;-79
2021/03/25 11:50:01;;;;;;;10.00;4.00;;;;;;;8.67;44.31;100581.05;125937;1099;104145;-82
2021/03/25 11:52:45;;;;;;;9.50;3.90;;;;;;;8.67;43.93;100581.93;125824;1099;104338;-80
2021/03/25 11:55:26;;;;;;;14.33;4.57;;;;;;;8.66;43.62;100580.13;125949;1099;104185;-79
2021/03/25 11:58:07;;;;;;;12.27;4.23;;;;;;;8.67;43.62;100579.31;126123;1099;104155;-78
2021/03/25 12:00:57;;;;;;;11.93;4.37;;;;;;;8.62;43.23;100589.56;126007;1099;104174;-78
2021/03/25 12:03:30;;;;;;;9.77;4.63;;;;;;;8.58;43.18;100585.02;125905;1099;104169;-80
2021/03/25 12:06:15;;;;;;;12.00;5.03;;;;;;;8.48;43.83;100569.75;125703;1099;102182;-79
2021/03/25 12:08:46;;;;;;;14.80;4.97;;;;;;;8.61;43.93;100579.03;125825;1098;104274;-79
2021/03/25 12:11:38;;;;;;;8.50;3.97;;;;;;;8.57;42.98;100584.95;125753;1099;104139;-79
2021/03/25 12:14:16;;;;;;;12.57;4.73;;;;;;;8.49;41.37;100578.48;125894;1099;104211;-78
2021/03/25 12:16:51;;;;;;;12.00;4.60;;;;;;;8.41;42.64;100570.25;126015;1099;104648;-80
2021/03/25 12:19:23;;;;;;;7.17;4.00;;;;;;;8.39;41.38;100570.19;126042;1098;104278;-79